Terminal Aerodrome Forecast
Issued by NWS Los Angeles, CA

Home | Current Version | Previous Version | Text Only | Print | Product List | Glossary On
Versions: 1 2 3 4 5 6 7 8 9 10 11 12 13 14 15 16 17 18 19 20
000
FTUS46 KLOX 111227 AAA
TAFSMX
TAF AMD
KSMX 111227Z 1112/1212 11003KT 6SM FU SCT060 BKN250
     FM112000 32008KT 6SM HZ FU BKN060 BKN250
     FM120300 VRB03KT P6SM BKN250=

USA.gov is the U.S. government's official web portal to all federal, state and local government web resources and services.